Time;durP1;ratioP1;P1;durP2;ratioP2;P2;SDS_P1;SDS_P2;PMS_P1;PMS_P2;Temp;Humidity;BMP_temperature;BMP_pressure;BME280_temperature;BME280_humidity;BME280_pressure;Samples;Min_cycle;Max_cycle;Signal;HPM_P1;HPM_P2
2022/09/19 00:00:33;;;;;;;5.10;3.20;;;;;;;7.11;100.00;98722.28;5112035;28;20442;-77
2022/09/19 00:02:58;;;;;;;6.00;3.45;;;;;;;7.05;100.00;98714.81;5111895;28;20041;-77
2022/09/19 00:05:24;;;;;;;5.95;3.72;;;;;;;7.07;100.00;98717.31;5111500;28;20104;-77
2022/09/19 00:07:49;;;;;;;7.10;2.97;;;;;;;7.03;100.00;98718.38;5113580;28;20149;-77
2022/09/19 00:10:14;;;;;;;3.53;3.17;;;;;;;6.99;100.00;98707.31;5115644;27;20023;-77
2022/09/19 00:12:40;;;;;;;4.97;3.35;;;;;;;6.99;100.00;98713.38;5115887;28;20015;-77
2022/09/19 00:15:06;;;;;;;3.70;3.20;;;;;;;7.01;100.00;98721.03;5115537;28;20055;-77
2022/09/19 00:17:32;;;;;;;4.45;3.00;;;;;;;6.98;100.00;98713.41;5115325;28;20106;-77
2022/09/19 00:19:57;;;;;;;3.75;3.20;;;;;;;6.89;100.00;98703.50;5115750;28;20107;-77
2022/09/19 00:22:22;;;;;;;4.70;3.30;;;;;;;6.93;100.00;98712.78;5115211;28;20482;-77
2022/09/19 00:24:51;;;;;;;2.83;2.55;;;;;;;6.89;100.00;98708.69;5115577;28;20024;-77
2022/09/19 00:27:25;;;;;;;4.32;2.97;;;;;;;6.82;100.00;98702.94;5115201;28;20023;-77
2022/09/19 00:29:52;;;;;;;2.65;2.40;;;;;;;6.80;100.00;98703.94;5115432;28;20372;-77
2022/09/19 00:32:18;;;;;;;4.03;3.25;;;;;;;6.83;100.00;98712.41;5115071;28;20016;-77
2022/09/19 00:34:47;;;;;;;5.15;3.15;;;;;;;6.82;100.00;98705.53;5115295;28;20027;-77
2022/09/19 00:37:14;;;;;;;4.97;3.00;;;;;;;6.85;100.00;98715.75;5115201;27;20015;-77
2022/09/19 00:39:39;;;;;;;4.75;3.22;;;;;;;6.84;100.00;98714.06;5115594;28;20028;-77
2022/09/19 00:42:06;;;;;;;3.38;3.00;;;;;;;6.83;100.00;98703.78;5114990;28;20016;-77
2022/09/19 00:44:31;;;;;;;3.00;2.70;;;;;;;6.89;100.00;98714.69;5114856;28;20068;-77
2022/09/19 00:47:05;;;;;;;3.80;3.00;;;;;;;6.87;100.00;98713.06;5115139;28;20049;-77
2022/09/19 00:49:33;;;;;;;7.18;3.70;;;;;;;6.84;100.00;98710.66;5114610;28;20353;-77
2022/09/19 00:52:02;;;;;;;4.28;3.60;;;;;;;6.73;100.00;98695.59;5114843;28;20069;-77
2022/09/19 00:54:32;;;;;;;3.40;3.10;;;;;;;6.71;100.00;98690.50;5114695;28;20023;-77
2022/09/19 00:57:00;;;;;;;4.03;2.95;;;;;;;6.75;100.00;98702.41;5114625;28;20072;-77
2022/09/19 00:59:29;;;;;;;3.63;3.00;;;;;;;6.79;100.00;98710.84;5114696;28;20023;-77
2022/09/19 01:01:56;;;;;;;4.65;2.92;;;;;;;6.82;100.00;98705.53;5114405;28;20023;-77
2022/09/19 01:04:23;;;;;;;4.90;3.40;;;;;;;6.80;100.00;98707.34;5114614;28;20024;-77
2022/09/19 01:07:26;;;;;;;4.28;2.78;;;;;;;6.83;100.00;98716.75;5114402;27;20498;-77
2022/09/19 01:09:59;;;;;;;3.08;2.78;;;;;;;6.79;100.00;98697.91;5114377;28;20111;-77
2022/09/19 01:12:47;;;;;;;3.63;3.33;;;;;;;6.88;100.00;98713.00;5114126;28;20414;-77
2022/09/19 01:15:32;;;;;;;4.55;2.83;;;;;;;6.98;100.00;98716.84;5114744;28;20039;-77
2022/09/19 01:18:01;;;;;;;4.90;3.20;;;;;;;7.01;100.00;98710.69;5114061;28;20031;-77
2022/09/19 01:20:48;;;;;;;4.60;3.00;;;;;;;7.15;100.00;98720.38;5114263;28;20372;-77
2022/09/19 01:23:41;;;;;;;2.88;2.63;;;;;;;7.15;100.00;98726.41;5114454;28;20035;-77
2022/09/19 01:26:39;;;;;;;4.22;3.15;;;;;;;7.12;100.00;98712.75;5114313;28;20016;-77
2022/09/19 01:29:10;;;;;;;3.67;3.10;;;;;;;7.11;100.00;98722.28;5071020;28;20571;-77
2022/09/19 01:31:42;;;;;;;6.20;3.63;;;;;;;7.06;100.00;98697.53;5070729;28;20122;-77
2022/09/19 01:34:30;;;;;;;3.25;2.95;;;;;;;7.24;100.00;98713.00;5070941;28;20473;-77
2022/09/19 01:37:09;;;;;;;5.93;3.38;;;;;;;7.25;100.00;98709.53;5070977;28;20064;-77
2022/09/19 01:39:38;;;;;;;5.97;3.20;;;;;;;7.34;100.00;98713.44;5070598;28;20036;-77
2022/09/19 01:42:04;;;;;;;5.50;3.30;;;;;;;7.37;100.00;98709.84;5071103;28;20025;-77
2022/09/19 01:44:30;;;;;;;3.85;3.25;;;;;;;7.41;100.00;98709.59;5070912;28;20035;-77
2022/09/19 01:47:14;;;;;;;4.85;3.40;;;;;;;7.53;100.00;98725.47;5070821;28;20032;-77
2022/09/19 01:50:08;;;;;;;6.80;3.25;;;;;;;7.58;100.00;98715.72;5070467;28;20028;-77
2022/09/19 01:52:56;;;;;;;4.65;3.28;;;;;;;7.64;100.00;98721.44;5010986;28;20496;-77
2022/09/19 01:55:40;;;;;;;4.15;3.25;;;;;;;7.67;100.00;98723.91;5010671;28;20038;-77
2022/09/19 01:58:36;;;;;;;4.00;3.60;;;;;;;7.69;100.00;98716.88;5010773;28;20371;-77
2022/09/19 02:01:08;;;;;;;4.72;3.53;;;;;;;7.68;100.00;98706.59;5010845;28;20057;-77
2022/09/19 02:03:46;;;;;;;3.10;2.80;;;;;;;7.71;100.00;98712.47;5010513;28;20034;-77
2022/09/19 02:06:18;;;;;;;6.20;3.38;;;;;;;7.78;100.00;98712.16;5039956;28;20040;-77
2022/09/19 02:09:09;;;;;;;4.45;3.40;;;;;;;7.79;100.00;98714.66;5070266;28;20031;-77
2022/09/19 02:11:34;;;;;;;5.72;2.88;;;;;;;7.82;100.00;98717.09;5053185;28;20496;-77
2022/09/19 02:14:16;;;;;;;4.05;2.80;;;;;;;7.83;100.00;98715.34;5070533;28;20040;-77
2022/09/19 02:16:51;;;;;;;3.58;3.08;;;;;;;7.87;100.00;98709.09;5069836;28;20043;-77
2022/09/19 02:19:26;;;;;;;3.45;2.70;;;;;;;7.86;100.00;98713.44;5070109;28;20021;-77
2022/09/19 02:21:56;;;;;;;3.63;3.10;;;;;;;7.78;100.00;98697.44;5070010;28;20062;-77
2022/09/19 02:24:27;;;;;;;3.97;2.70;;;;;;;7.87;100.00;98715.09;5070093;28;20020;-77
2022/09/19 02:26:56;;;;;;;5.43;3.00;;;;;;;7.87;100.00;98709.09;5070026;28;20113;-77
2022/09/19 02:29:30;;;;;;;4.68;3.08;;;;;;;7.78;100.00;98701.78;5091163;28;20036;-77
2022/09/19 02:31:56;;;;;;;5.03;2.90;;;;;;;7.84;100.00;98707.50;5112648;28;20038;-77
2022/09/19 02:34:22;;;;;;;2.97;2.60;;;;;;;7.78;100.00;98710.38;5112870;28;20383;-77
2022/09/19 02:36:55;;;;;;;2.85;2.50;;;;;;;7.80;100.00;98718.94;5112881;28;20020;-77
2022/09/19 02:39:31;;;;;;;4.50;2.97;;;;;;;7.83;100.00;98717.94;5112653;28;20360;-77
2022/09/19 02:42:43;;;;;;;4.40;2.97;;;;;;;7.82;100.00;98717.09;5112708;28;20015;-77
2022/09/19 02:45:31;;;;;;;3.25;2.85;;;;;;;7.76;100.00;98722.59;5069704;28;20028;-77
2022/09/19 02:48:13;;;;;;;3.05;2.75;;;;;;;7.69;100.00;98722.06;5069684;28;20032;-77
2022/09/19 02:50:50;;;;;;;5.55;2.83;;;;;;;7.75;100.00;98732.13;5069377;28;20057;-77
2022/09/19 02:53:27;;;;;;;3.95;3.03;;;;;;;7.76;100.00;98720.00;5069745;28;20069;-77
2022/09/19 02:55:57;;;;;;;3.80;2.85;;;;;;;7.79;100.00;98722.44;5054258;28;20431;-77
2022/09/19 02:58:26;;;;;;;3.22;2.92;;;;;;;7.80;100.00;98726.72;5069293;28;20119;-77
2022/09/19 03:00:56;;;;;;;3.95;3.35;;;;;;;7.82;100.00;98717.09;5069939;28;20051;-77
2022/09/19 03:06:14;;;;;;;2.78;2.40;;;;;;;7.91;100.00;98727.00;5069529;28;20086;-77
2022/09/19 03:08:44;;;;;;;2.97;2.60;;;;;;;7.89;100.00;98725.41;5069470;28;20027;-77
2022/09/19 03:11:16;;;;;;;4.65;2.85;;;;;;;7.90;100.00;98725.31;5035822;28;20036;-77
2022/09/19 03:13:42;;;;;;;3.10;2.17;;;;;;;7.90;100.00;98727.09;5069227;28;20382;-77
2022/09/19 03:16:18;;;;;;;2.28;2.08;;;;;;;7.95;100.00;98736.31;5069431;28;20044;-77
2022/09/19 03:18:46;;;;;;;2.30;2.10;;;;;;;7.97;100.00;98733.66;5084426;28;20036;-77
2022/09/19 03:21:12;;;;;;;2.47;2.28;;;;;;;7.90;100.00;98725.31;5112252;28;20035;-77
2022/09/19 03:23:47;;;;;;;2.53;2.25;;;;;;;8.00;100.00;98742.09;5111938;28;20091;-77
2022/09/19 03:26:18;;;;;;;3.00;2.28;;;;;;;8.00;100.00;98749.03;5112371;28;20023;-77
2022/09/19 03:28:44;;;;;;;;;;;;;;;8.03;100.00;98748.03;5112453;28;20411;-77
2022/09/19 03:31:09;;;;;;;3.28;2.13;;;;;;;7.95;100.00;98735.47;5112285;28;19908;-77
2022/09/19 03:33:35;;;;;;;2.20;2.10;;;;;;;7.96;100.00;98742.31;5112120;28;20015;-77
2022/09/19 03:36:07;;;;;;;5.18;2.33;;;;;;;7.96;100.00;98748.38;5112141;28;20417;-77
2022/09/19 03:38:36;;;;;;;2.30;2.10;;;;;;;7.98;100.00;98745.69;5112078;28;20475;-77
2022/09/19 03:41:02;;;;;;;3.58;2.58;;;;;;;8.06;100.00;98753.91;5112915;28;20031;-77
2022/09/19 03:43:29;;;;;;;4.60;2.20;;;;;;;8.06;100.00;98753.09;5116201;28;20019;-77
2022/09/19 03:45:56;;;;;;;2.17;2.00;;;;;;;8.07;100.00;98754.75;5116227;28;20016;-77
2022/09/19 03:48:22;;;;;;;3.08;2.40;;;;;;;8.04;100.00;98753.16;5116059;28;20092;-77
2022/09/19 03:50:48;;;;;;;2.58;2.38;;;;;;;8.04;100.00;98750.56;5115886;27;20452;-77
2022/09/19 03:53:15;;;;;;;3.58;2.20;;;;;;;8.04;100.00;98750.56;5116179;28;20028;-77
2022/09/19 03:55:41;;;;;;;2.83;2.15;;;;;;;8.09;100.00;98766.75;5113520;28;20535;-77
2022/09/19 03:58:08;;;;;;;2.55;2.35;;;;;;;8.11;100.00;98761.47;5115915;28;20464;-77
2022/09/19 04:00:33;;;;;;;4.30;2.13;;;;;;;8.09;100.00;98758.09;5115896;28;20345;-77
2022/09/19 04:02:59;;;;;;;5.47;2.40;;;;;;;8.04;100.00;98758.34;5115819;28;20098;-77
2022/09/19 04:05:24;;;;;;;2.80;1.95;;;;;;;8.00;100.00;98755.06;5115598;28;20039;-77
2022/09/19 04:07:50;;;;;;;2.40;2.20;;;;;;;8.05;100.00;98760.03;5115718;28;20047;-77
2022/09/19 04:10:15;;;;;;;2.63;2.15;;;;;;;8.05;100.00;98761.75;5115646;28;20111;-77
2022/09/19 04:12:41;;;;;;;2.05;1.85;;;;;;;8.00;100.00;98762.81;5115443;28;20110;-77
2022/09/19 04:15:07;;;;;;;2.00;1.80;;;;;;;7.98;100.00;98769.88;5115752;28;20019;-77
2022/09/19 04:17:33;;;;;;;1.77;1.67;;;;;;;8.00;100.00;98772.38;5115626;28;20028;-77
2022/09/19 04:19:58;;;;;;;1.95;1.80;;;;;;;8.04;100.00;98778.25;5113754;28;20407;-77
2022/09/19 04:22:24;;;;;;;2.35;2.15;;;;;;;7.98;100.00;98772.44;5115599;28;20035;-77
2022/09/19 04:24:52;;;;;;;2.13;1.92;;;;;;;7.95;100.00;98774.34;5115268;28;20023;-77
2022/09/19 04:27:18;;;;;;;4.47;1.95;;;;;;;7.98;100.00;98777.63;5115280;28;20452;-77
2022/09/19 04:29:43;;;;;;;2.88;1.80;;;;;;;7.90;100.00;98781.53;5115268;28;20492;-77
2022/09/19 04:32:09;;;;;;;3.70;1.73;;;;;;;7.91;100.00;98785.78;5115195;28;20034;-77
2022/09/19 04:34:35;;;;;;;2.38;1.88;;;;;;;7.91;100.00;98789.22;5115326;28;20026;-77
2022/09/19 04:37:03;;;;;;;4.70;2.15;;;;;;;7.92;100.00;98790.06;5115054;28;20024;-77
2022/09/19 04:39:32;;;;;;;2.03;1.70;;;;;;;7.94;100.00;98790.84;5114998;27;20337;-77
2022/09/19 04:42:00;;;;;;;2.67;1.85;;;;;;;7.88;100.00;98796.31;5115165;28;20023;-77
2022/09/19 04:44:29;;;;;;;3.38;1.70;;;;;;;7.84;100.00;98790.47;5114950;28;20020;-77
2022/09/19 04:46:55;;;;;;;1.85;1.75;;;;;;;7.83;100.00;98793.94;5114705;28;20031;-77
2022/09/19 04:49:20;;;;;;;1.90;1.80;;;;;;;7.90;100.00;98808.28;5115117;28;20012;-77
2022/09/19 04:51:46;;;;;;;3.03;1.95;;;;;;;7.89;100.00;98808.38;5114646;28;20138;-77
2022/09/19 04:54:14;;;;;;;3.17;1.90;;;;;;;7.85;100.00;98799.91;5114002;28;20094;-77
2022/09/19 04:56:43;;;;;;;2.10;1.90;;;;;;;7.89;100.00;98813.56;5114551;28;20341;-77
2022/09/19 04:59:09;;;;;;;3.30;2.37;;;;;;;7.86;100.00;98814.53;5114743;28;20427;-77
2022/09/19 05:01:35;;;;;;;2.90;2.40;;;;;;;7.93;100.00;98828.06;5114315;28;20069;-77
2022/09/19 05:04:02;;;;;;;2.65;2.08;;;;;;;7.89;100.00;98821.34;5114833;28;20044;-77
2022/09/19 05:06:28;;;;;;;4.93;2.25;;;;;;;7.86;100.00;98822.31;5114441;28;20074;-77
2022/09/19 05:08:54;;;;;;;2.20;2.00;;;;;;;7.96;100.00;98835.66;5114365;28;20102;-77
2022/09/19 05:11:21;;;;;;;2.63;2.00;;;;;;;7.92;100.00;98826.34;5114369;28;20453;-77
2022/09/19 05:13:48;;;;;;;2.00;1.90;;;;;;;7.96;100.00;98833.06;5114230;28;20016;-77
2022/09/19 05:16:13;;;;;;;3.67;2.50;;;;;;;7.88;100.00;98823.09;5114216;28;20030;-77
2022/09/19 05:18:39;;;;;;;3.42;2.55;;;;;;;7.95;100.00;98837.41;5114279;28;20055;-77
2022/09/19 05:21:07;;;;;;;9.05;3.42;;;;;;;7.99;100.00;98838.94;5114407;28;20028;-77
2022/09/19 05:23:35;;;;;;;3.70;2.28;;;;;;;7.95;100.00;98821.03;5114245;28;20023;-77
2022/09/19 05:26:09;;;;;;;4.78;3.10;;;;;;;7.99;100.00;98840.72;5114607;27;20386;-77
2022/09/19 05:28:36;;;;;;;5.00;2.78;;;;;;;8.05;100.00;98836.97;5113894;28;20019;-77
2022/09/19 05:31:05;;;;;;;4.05;2.45;;;;;;;8.03;100.00;98836.22;5114210;28;20020;-77
2022/09/19 05:33:32;;;;;;;5.28;2.70;;;;;;;8.11;100.00;98850.47;5114117;28;20068;-77
2022/09/19 05:36:00;;;;;;;3.00;2.47;;;;;;;8.07;100.00;98843.78;5114259;28;20016;-77
2022/09/19 05:38:27;;;;;;;3.80;2.90;;;;;;;8.17;100.00;98863.13;5114179;28;20081;-77
2022/09/19 05:40:53;;;;;;;3.80;2.97;;;;;;;8.16;100.00;98858.88;5113731;28;20071;-77
2022/09/19 05:43:19;;;;;;;5.03;3.60;;;;;;;8.18;100.00;98864.84;5114022;28;20488;-77
2022/09/19 05:45:44;;;;;;;5.65;3.17;;;;;;;8.27;100.00;98870.50;5114206;28;20020;-77
2022/09/19 05:48:10;;;;;;;5.28;2.97;;;;;;;8.25;100.00;98866.19;5113863;28;20349;-77
2022/09/19 05:50:36;;;;;;;5.88;3.22;;;;;;;8.22;100.00;98865.53;5113547;27;20390;-77
2022/09/19 05:55:46;;;;;;;5.35;2.67;;;;;;;8.23;100.00;98869.78;5113363;28;20293;-77
2022/09/19 05:58:12;;;;;;;7.43;2.88;;;;;;;8.34;100.00;98877.88;5113712;28;20019;-77
2022/09/19 06:00:38;;;;;;;4.13;2.80;;;;;;;8.37;100.00;98879.50;5113510;28;20061;-77
2022/09/19 06:03:06;;;;;;;3.80;2.80;;;;;;;8.30;100.00;98870.31;5113424;28;20028;-77
2022/09/19 06:05:38;;;;;;;3.25;2.80;;;;;;;8.34;100.00;98883.06;5113387;28;20430;-77
2022/09/19 06:08:04;;;;;;;4.53;3.53;;;;;;;8.40;100.00;98887.16;5113370;28;20066;-77
2022/09/19 06:10:33;;;;;;;2.88;2.63;;;;;;;8.35;100.00;98876.97;5113395;28;20055;-77
2022/09/19 06:12:58;;;;;;;3.92;2.70;;;;;;;8.42;100.00;98888.75;5113367;28;20456;-77
2022/09/19 06:15:24;;;;;;;4.25;3.10;;;;;;;8.43;100.00;98887.00;5113471;28;20069;-77
2022/09/19 06:17:59;;;;;;;3.88;2.88;;;;;;;8.36;100.00;98885.59;5112996;28;20023;-77
2022/09/19 06:20:25;;;;;;;2.92;2.47;;;;;;;8.43;100.00;98895.63;5113169;28;20031;-77
2022/09/19 06:23:02;;;;;;;3.65;2.83;;;;;;;8.43;100.00;98906.00;5112979;28;20418;-77
2022/09/19 06:25:31;;;;;;;3.55;3.25;;;;;;;8.47;100.00;98896.31;5113229;28;20031;-77
2022/09/19 06:27:59;;;;;;;3.50;2.75;;;;;;;8.44;100.00;98897.31;5112829;27;20020;-77
2022/09/19 06:30:25;;;;;;;4.57;3.22;;;;;;;8.53;100.00;98906.38;5113173;28;20050;-77
2022/09/19 06:32:51;;;;;;;4.82;3.42;;;;;;;8.56;100.00;98910.59;5112854;28;20020;-77
2022/09/19 06:35:21;;;;;;;5.50;3.42;;;;;;;8.64;100.00;98905.84;5112893;28;20026;-78
2022/09/19 06:37:47;;;;;;;5.32;3.40;;;;;;;8.77;100.00;98904.31;5112802;28;20022;-77
2022/09/19 06:40:13;;;;;;;6.22;3.40;;;;;;;8.84;100.00;98902.22;5112844;28;20027;-77
2022/09/19 06:42:39;;;;;;;4.53;3.50;;;;;;;8.96;100.00;98912.81;5112698;28;20026;-77
2022/09/19 06:45:06;;;;;;;4.72;3.10;;;;;;;8.96;100.00;98904.19;5112890;28;20028;-78
2022/09/19 06:47:32;;;;;;;5.88;3.45;;;;;;;8.98;100.00;98913.59;5112676;28;20284;-77
2022/09/19 06:49:59;;;;;;;4.55;3.50;;;;;;;9.14;100.00;98910.16;5112640;28;20031;-77
2022/09/19 06:52:24;;;;;;;4.30;3.65;;;;;;;9.23;100.00;98915.75;5112831;28;20027;-77
2022/09/19 06:54:50;;;;;;;4.28;3.42;;;;;;;9.27;100.00;98908.63;5112561;28;20027;-77
2022/09/19 06:57:16;;;;;;;5.22;4.00;;;;;;;9.37;100.00;98907.22;5112598;28;20040;-77
2022/09/19 06:59:41;;;;;;;5.78;3.78;;;;;;;9.65;100.00;98918.69;5110181;28;20100;-77
2022/09/19 07:02:08;;;;;;;6.25;3.45;;;;;;;9.93;100.00;98918.03;5112549;28;20019;-77
2022/09/19 07:04:34;;;;;;;5.38;3.40;;;;;;;10.24;100.00;98923.25;5112614;28;20047;-77
2022/09/19 07:07:00;;;;;;;6.78;3.70;;;;;;;10.53;100.00;98927.69;5112387;28;20085;-77
2022/09/19 07:09:26;;;;;;;7.13;4.25;;;;;;;11.03;100.00;98926.47;5112558;28;20510;-78
2022/09/19 07:11:53;;;;;;;8.35;6.28;;;;;;;12.11;100.00;98916.28;5112271;28;20054;-77
2022/09/19 07:14:19;;;;;;;8.00;5.78;;;;;;;13.81;99.73;98916.03;5112325;28;20436;-77
2022/09/19 07:16:45;;;;;;;9.70;6.05;;;;;;;15.63;90.54;98928.59;5115698;28;20045;-78
2022/09/19 07:19:10;;;;;;;8.35;5.22;;;;;;;16.70;85.23;98927.78;5119405;27;20106;-78
2022/09/19 07:21:36;;;;;;;6.57;5.47;;;;;;;17.25;78.98;98924.09;5119334;27;20106;-78
2022/09/19 07:24:04;;;;;;;6.43;4.45;;;;;;;16.43;79.63;98928.28;5119108;27;20020;-78
2022/09/19 07:26:30;;;;;;;4.97;3.38;;;;;;;15.74;81.29;98932.16;5119083;27;20027;-78
2022/09/19 07:28:55;;;;;;;6.10;3.67;;;;;;;15.08;83.20;98938.09;5118754;27;20476;-78
2022/09/19 07:31:20;;;;;;;6.38;3.22;;;;;;;15.15;81.41;98941.09;5118934;27;20012;-78
2022/09/19 07:33:47;;;;;;;5.00;3.20;;;;;;;14.80;81.80;98928.03;5105211;27;20024;-78
2022/09/19 07:36:12;;;;;;;3.10;2.53;;;;;;;14.19;82.70;98947.31;5106410;28;20460;-78
2022/09/19 07:38:38;;;;;;;3.17;2.30;;;;;;;13.59;84.27;98950.75;5112549;27;20019;-78
2022/09/19 07:41:04;;;;;;;4.65;2.75;;;;;;;13.13;86.36;98955.66;5098614;28;20032;-78
2022/09/19 07:43:29;;;;;;;4.05;2.40;;;;;;;12.87;87.61;98973.13;5098756;28;20026;-78
2022/09/19 07:45:55;;;;;;;3.45;2.50;;;;;;;12.61;89.02;98962.63;5098225;28;20031;-78
2022/09/19 07:48:21;;;;;;;3.58;2.83;;;;;;;12.63;90.00;98965.13;5098611;28;20020;-78
2022/09/19 07:50:50;;;;;;;5.30;2.50;;;;;;;12.70;89.93;98974.22;5098339;28;20020;-78
2022/09/19 07:53:18;;;;;;;3.60;2.58;;;;;;;12.51;90.39;98965.91;5105179;28;20028;-78
2022/09/19 07:55:48;;;;;;;3.03;2.70;;;;;;;12.39;91.02;98971.03;5118354;27;20660;-78
2022/09/19 07:58:13;;;;;;;4.60;3.47;;;;;;;12.13;91.93;98975.28;5107998;28;20032;-78
2022/09/19 08:00:39;;;;;;;6.70;3.13;;;;;;;11.94;93.09;98982.63;5115313;27;20024;-78
2022/09/19 08:03:12;;;;;;;4.28;3.30;;;;;;;11.70;93.81;98979.72;5108612;27;20024;-78
2022/09/19 08:05:41;;;;;;;3.67;3.28;;;;;;;11.74;94.45;98989.03;5110136;28;20411;-78
2022/09/19 08:08:09;;;;;;;5.50;3.45;;;;;;;11.68;94.70;98992.03;5119079;27;20100;-78
2022/09/19 08:10:35;;;;;;;5.80;3.42;;;;;;;11.70;95.49;98996.22;5118640;27;20027;-78
2022/09/19 08:13:03;;;;;;;4.85;3.88;;;;;;;11.82;95.32;98992.00;5118359;27;20024;-78
2022/09/19 08:15:29;;;;;;;5.70;3.80;;;;;;;11.94;94.98;98988.66;5119159;28;20031;-78
2022/09/19 08:18:01;;;;;;;5.18;3.50;;;;;;;11.98;95.48;98989.31;5118522;27;20040;-78
2022/09/19 08:20:32;;;;;;;;;;;;;;;12.11;95.66;98999.81;5118640;27;20019;-78
2022/09/19 08:23:05;;;;;;;4.45;3.50;;;;;;;12.01;95.16;98989.13;5118013;27;19904;-78
2022/09/19 08:25:33;;;;;;;4.25;3.50;;;;;;;12.15;95.43;98996.09;5118007;27;20065;-78
2022/09/19 08:27:59;;;;;;;3.35;2.95;;;;;;;12.49;95.19;99000.81;5115126;27;20034;-77
2022/09/19 08:30:29;;;;;;;2.97;2.72;;;;;;;12.81;94.25;99012.69;5115059;28;20129;-77
2022/09/19 08:32:56;;;;;;;6.80;4.18;;;;;;;13.06;93.19;98996.22;5114935;28;20023;-78
2022/09/19 08:35:22;;;;;;;7.15;3.50;;;;;;;13.20;92.06;99001.38;5114971;28;20480;-78
2022/09/19 08:38:01;;;;;;;5.60;3.40;;;;;;;13.32;90.74;99003.19;5114973;28;20525;-78
2022/09/19 08:40:34;;;;;;;4.07;2.97;;;;;;;13.25;89.66;99001.09;5115349;28;20020;-78
2022/09/19 08:43:14;;;;;;;4.22;2.95;;;;;;;12.96;89.68;99017.75;5114855;27;20020;-78
2022/09/19 08:46:14;;;;;;;7.23;3.47;;;;;;;12.94;90.91;99006.59;5115257;27;20050;-78
2022/09/19 08:49:03;;;;;;;6.90;3.53;;;;;;;12.98;90.58;99009.84;5115333;28;20112;-78
2022/09/19 08:52:01;;;;;;;4.65;3.30;;;;;;;12.72;90.07;99008.91;5114745;28;20465;-78
2022/09/19 08:54:30;;;;;;;4.20;2.80;;;;;;;12.54;90.33;99012.75;5114819;28;20034;-78
2022/09/19 08:56:58;;;;;;;7.37;3.63;;;;;;;12.51;91.07;99026.00;5114443;28;20468;-78
2022/09/19 08:59:27;;;;;;;3.75;2.97;;;;;;;12.58;91.63;99020.28;5112690;28;20258;-78
2022/09/19 09:02:07;;;;;;;5.03;2.80;;;;;;;12.66;91.77;99025.84;5110574;28;20469;-77
2022/09/19 09:04:35;;;;;;;6.32;3.85;;;;;;;12.63;92.03;99020.81;5074828;28;20383;-77
2022/09/19 09:07:19;;;;;;;5.20;3.28;;;;;;;12.70;91.94;99029.09;5100034;28;20051;-78
2022/09/19 09:09:50;;;;;;;5.53;3.33;;;;;;;12.59;91.72;99029.78;5103660;28;20060;-78
2022/09/19 09:12:21;;;;;;;4.10;3.20;;;;;;;12.52;91.63;99033.75;5108554;28;20031;-78
2022/09/19 09:14:58;;;;;;;4.20;2.90;;;;;;;12.56;92.06;99037.00;5114290;28;20053;-78
2022/09/19 09:17:44;;;;;;;6.22;3.45;;;;;;;12.65;91.33;99029.41;5114205;28;20028;-78
2022/09/19 09:20:27;;;;;;;5.72;3.80;;;;;;;12.71;90.84;99044.66;5105491;28;20035;-78
2022/09/19 09:23:08;;;;;;;5.30;3.25;;;;;;;12.75;90.04;99032.25;5093585;28;20085;-78
2022/09/19 09:25:37;;;;;;;4.95;2.95;;;;;;;12.90;89.77;99038.25;5093994;28;20066;-77
2022/09/19 09:28:26;;;;;;;6.40;3.10;;;;;;;12.86;89.24;99039.41;5093431;28;20020;-78
2022/09/19 09:30:59;;;;;;;4.03;2.75;;;;;;;12.83;89.76;99040.44;5103271;28;20028;-78
2022/09/19 09:33:31;;;;;;;5.00;2.88;;;;;;;12.70;90.53;99034.31;5114181;28;20023;-78
2022/09/19 09:36:02;;;;;;;5.18;3.05;;;;;;;12.57;90.78;99047.34;5113738;28;20106;-77
2022/09/19 09:38:32;;;;;;;3.92;2.40;;;;;;;12.51;91.20;99050.34;5114030;28;20103;-77
2022/09/19 09:44:30;;;;;;;4.63;2.92;;;;;;;12.14;92.73;99055.28;5113759;28;20395;-78
2022/09/19 09:46:57;;;;;;;6.07;3.58;;;;;;;12.08;93.36;99062.66;5113460;28;20034;-78
2022/09/19 09:49:29;;;;;;;3.97;2.78;;;;;;;12.04;94.73;99055.94;5113871;28;20395;-78
2022/09/19 09:52:14;;;;;;;3.13;2.30;;;;;;;12.10;95.04;99066.03;5113398;28;20415;-78
2022/09/19 09:57:41;;;;;;;3.45;2.45;;;;;;;12.05;94.21;99075.88;5113969;28;20474;-78
2022/09/19 10:03:34;;;;;;;4.53;2.75;;;;;;;11.81;95.80;99062.56;5113467;28;20123;-78
2022/09/19 10:06:13;;;;;;;4.53;2.60;;;;;;;11.76;96.22;99075.91;5113196;28;20234;-77
2022/09/19 10:08:44;;;;;;;2.78;2.50;;;;;;;11.65;97.10;99063.47;5113490;27;20024;-77
2022/09/19 10:11:16;;;;;;;6.57;2.95;;;;;;;11.59;97.48;99069.09;5113003;28;20418;-77
2022/09/19 10:13:49;;;;;;;4.95;2.70;;;;;;;11.62;97.79;99070.66;5111995;28;20163;-77
2022/09/19 10:16:17;;;;;;;4.80;2.60;;;;;;;11.73;98.07;99082.13;5113267;28;20066;-77
2022/09/19 10:18:59;;;;;;;3.85;3.28;;;;;;;11.83;98.62;99077.22;5113200;28;20106;-77
2022/09/19 10:21:24;;;;;;;7.05;3.72;;;;;;;11.92;98.39;99079.25;5113570;28;20037;-77
2022/09/19 10:23:50;;;;;;;5.55;3.65;;;;;;;12.06;98.58;99078.44;5113000;28;20102;-77
2022/09/19 10:26:25;;;;;;;8.02;3.83;;;;;;;12.21;99.23;99082.69;5112914;28;20066;-77
2022/09/19 10:28:59;;;;;;;5.70;4.00;;;;;;;12.26;98.46;99082.38;5113190;28;20103;-77
2022/09/19 10:31:34;;;;;;;5.40;4.07;;;;;;;12.24;98.74;99079.88;5113024;28;20028;-77
2022/09/19 10:34:21;;;;;;;6.18;4.63;;;;;;;12.13;99.08;99081.47;5112820;28;20327;-77
2022/09/19 10:36:47;;;;;;;6.28;4.20;;;;;;;11.98;99.88;99091.09;5112926;28;20076;-77
2022/09/19 10:39:14;;;;;;;5.20;4.05;;;;;;;11.79;100.00;99080.91;5112879;28;20015;-77
2022/09/19 10:41:41;;;;;;;6.30;4.82;;;;;;;11.69;100.00;99091.06;5112845;28;20027;-77
2022/09/19 10:44:21;;;;;;;6.70;4.43;;;;;;;11.62;100.00;99083.69;5112374;28;20365;-78
2022/09/19 10:46:50;;;;;;;7.72;5.15;;;;;;;11.63;100.00;99081.00;5112881;28;20107;-78
2022/09/19 10:49:22;;;;;;;8.15;5.40;;;;;;;11.61;100.00;99079.41;5112515;28;20048;-78
2022/09/19 10:51:50;;;;;;;9.27;6.47;;;;;;;11.72;100.00;99090.88;5111947;28;20155;-78
2022/09/19 10:54:39;;;;;;;8.30;6.47;;;;;;;11.71;100.00;99096.19;5112649;28;20012;-78
2022/09/19 10:57:25;;;;;;;7.68;6.03;;;;;;;11.67;100.00;99090.34;5112296;28;20467;-78
2022/09/19 10:59:52;;;;;;;9.20;5.97;;;;;;;11.58;100.00;99079.59;5112150;28;20350;-78
2022/09/19 11:02:27;;;;;;;7.15;5.95;;;;;;;11.65;100.00;99083.50;5112540;28;20077;-78
2022/09/19 11:04:56;;;;;;;6.78;5.47;;;;;;;11.70;100.00;99091.91;5112178;28;20019;-78
2022/09/19 11:07:28;;;;;;;7.93;6.38;;;;;;;11.63;100.00;99078.41;5112471;28;20020;-78
2022/09/19 11:09:59;;;;;;;8.68;5.93;;;;;;;11.63;100.00;99095.78;5112110;28;20027;-78
2022/09/19 11:12:25;;;;;;;9.50;5.97;;;;;;;11.55;100.00;99085.84;5110972;28;20028;-78
2022/09/19 11:14:55;;;;;;;9.23;5.90;;;;;;;11.51;100.00;99073.91;5112379;28;20073;-78
2022/09/19 11:17:42;;;;;;;6.28;5.68;;;;;;;11.63;100.00;99091.44;5112482;28;20074;-78
2022/09/19 11:20:35;;;;;;;7.25;6.00;;;;;;;11.66;100.00;99087.78;5112121;28;20371;-78
2022/09/19 11:23:18;;;;;;;7.50;5.88;;;;;;;11.78;100.00;99094.88;5112263;28;20153;-78
2022/09/19 11:26:23;;;;;;;9.43;6.60;;;;;;;11.81;100.00;99093.88;5112369;28;20112;-78
2022/09/19 11:29:14;;;;;;;7.10;6.40;;;;;;;11.80;100.00;99094.78;5069228;28;20040;-78
2022/09/19 11:31:43;;;;;;;7.13;5.45;;;;;;;11.84;100.00;99105.00;5069251;28;20551;-78
2022/09/19 11:34:18;;;;;;;7.20;6.28;;;;;;;11.86;100.00;99100.50;5068888;28;20036;-78
2022/09/19 11:37:07;;;;;;;9.70;6.20;;;;;;;11.88;100.00;99103.03;5069046;28;20094;-78
2022/09/19 11:40:03;;;;;;;9.70;6.50;;;;;;;11.84;100.00;99089.34;5069178;28;20458;-78
2022/09/19 11:42:28;;;;;;;6.10;5.50;;;;;;;11.90;100.00;99094.19;5069278;28;20365;-78
2022/09/19 11:45:12;;;;;;;5.40;4.90;;;;;;;11.96;100.00;99095.56;5069016;28;20036;-78
2022/09/19 11:47:53;;;;;;;9.80;5.72;;;;;;;12.05;100.00;99102.84;5069225;28;20024;-78
2022/09/19 11:50:29;;;;;;;7.70;6.78;;;;;;;12.15;100.00;99096.13;5069103;28;20039;-78
2022/09/19 11:53:22;;;;;;;8.50;5.90;;;;;;;12.26;100.00;99089.38;5068837;28;20036;-78
2022/09/19 11:56:13;;;;;;;8.13;7.15;;;;;;;12.41;100.00;99086.66;5059884;28;20677;-78
2022/09/19 11:59:24;;;;;;;11.35;7.25;;;;;;;12.64;100.00;99094.81;5048682;28;20713;-78
2022/09/19 12:02:11;;;;;;;11.43;7.25;;;;;;;12.76;100.00;99107.06;5048496;28;20025;-78
2022/09/19 12:04:55;;;;;;;10.40;6.18;;;;;;;12.78;100.00;99089.53;5055429;28;20127;-78
2022/09/19 12:07:32;;;;;;;8.52;5.68;;;;;;;12.93;100.00;99101.59;5094940;28;20510;-78